ユジノサハリンスク の空港の天気 - METARとTAF

ホムトヴォ空港(ユジノサハリンスク) ( UHSS / UUS ) - ロシア ユジノサハリンスク
飛行場実況気象(Metar)
観測時間01/20 12:30 VLAT (01/20 02:30 UTC)
風向・風速北 2m/s
視程10km以上
天気現象
なし
気温-10℃
湿度67%
気圧1006hPa
METARUHSS 200230Z 35002MPS 9999 NSC M10/M15 Q1006 R01/810365 NOSIG RMK QFE754/1005
過去の天気等 Google飛行場航空写真 Wunderground天気予報

過去48時間のMETAR

飛行場予報(TAF)
発表時間: 1/20 12:00 VLAT (1/20 02:00 UTC)
予報対象時間: 20日13時 VLAT ~ 21日19時 VLAT
風向・風速北 3m/s
視程10km以上
全天の8割程度の積乱雲 雲底高度 910m
TAF UHSS 200200Z 2003/2109 36003MPS 9999 BKN030CB